Leesburg International Airport Leesburg US
ICAO: KLEE
IATA: LEE
Category: Medium
Scheduled Services: No

Elevation: 76 ft
TransAlt. 18000 ft.

Airport Communications:
ORLANDO APP/DEP:121.1
ASOS:134.325
CTAF/UNICOM:122.725

KLEE Zoom In..

Runways:

(A) RW 03 length 4957 ft width 100 ft
---- / hdg 40

(B) RW 13 length 6300 ft width 100 ft
---- / hdg 135

(C) RW 21 length 4957 ft width 100 ft
---- / hdg 220

(D) RW 31 length 6300 ft width 100 ft
---- / hdg 315

Location; KLEE
Day. 23 / Time. 09.57 Zulu
* Altimeter: 29.77
* Temperature: 23° c. 73.4°f.
* Wind from: 180° Speed 18 kn.
Dewpoint: 23° c.
Visibility: 7 Statute Miles.
Clouds: Scattered 11000 ft.
Conditions: Light Rain.

KLEE 230957Z AUTO 18018KT 7SM -RA SCT110 23/23 A2977 RMK AO2 LTG DSNT ALQDS TSE54 P0001 T02330233


Wind From 180°
Speed 18 kn.

 
 
jpsmedia.com for Web Design worldairports.se 2018   terms of use